createdAt,value
2017-08-08T00:00:19.744Z,70.60
2017-08-08T00:02:48.212Z,71.00
2017-08-08T00:05:15.867Z,70.30
2017-08-08T00:07:43.330Z,70.20
2017-08-08T00:10:11.005Z,70.30
2017-08-08T00:12:38.641Z,70.10
2017-08-08T00:15:06.095Z,70.30
2017-08-08T00:17:33.551Z,70.20
2017-08-08T00:20:01.031Z,70.10
2017-08-08T00:22:28.528Z,69.80
2017-08-08T00:24:57.643Z,70.20
2017-08-08T00:27:25.127Z,70.20
2017-08-08T00:29:52.615Z,70.40
2017-08-08T00:32:20.119Z,70.80
2017-08-08T00:34:47.691Z,70.40
2017-08-08T00:37:15.155Z,70.50
2017-08-08T00:39:42.688Z,70.60
2017-08-08T00:42:10.990Z,70.80
2017-08-08T00:44:38.481Z,70.70
2017-08-08T00:47:05.974Z,70.80
2017-08-08T00:49:33.467Z,71.00
2017-08-08T00:52:01.846Z,71.00
2017-08-08T00:54:30.198Z,70.60
2017-08-08T00:56:58.000Z,70.60
2017-08-08T00:59:25.588Z,70.30
2017-08-08T01:01:53.151Z,69.90
2017-08-08T01:04:21.393Z,69.10
2017-08-08T01:06:49.004Z,69.30
2017-08-08T01:09:16.567Z,69.40
2017-08-08T01:11:44.172Z,69.30
2017-08-08T01:14:12.553Z,69.00
2017-08-08T01:16:40.034Z,69.30
2017-08-08T01:19:07.665Z,69.50
2017-08-08T01:21:35.307Z,69.80
2017-08-08T01:24:02.817Z,70.20
2017-08-08T01:26:30.278Z,70.50
2017-08-08T01:28:58.625Z,70.80
2017-08-08T01:31:26.223Z,70.70
2017-08-08T01:33:53.719Z,71.00
2017-08-08T01:36:21.435Z,71.10
2017-08-08T01:38:48.951Z,71.50
2017-08-08T01:41:16.395Z,71.40
2017-08-08T01:43:43.961Z,71.60
2017-08-08T01:46:11.471Z,71.80
2017-08-08T01:48:38.922Z,72.10
2017-08-08T01:51:06.858Z,72.10
2017-08-08T01:53:34.293Z,72.30
2017-08-08T01:56:01.748Z,72.40
2017-08-08T01:58:29.480Z,72.50
2017-08-08T02:00:57.022Z,72.50
2017-08-08T02:03:24.531Z,72.80
2017-08-08T02:05:51.983Z,72.80
2017-08-08T02:08:19.497Z,73.10
2017-08-08T02:10:47.003Z,73.00
2017-08-08T02:13:14.487Z,73.00
2017-08-08T02:15:42.027Z,73.20
2017-08-08T02:18:09.474Z,73.20
2017-08-08T02:20:36.993Z,73.30
2017-08-08T02:23:04.463Z,73.30
2017-08-08T02:25:31.911Z,73.30
2017-08-08T02:27:59.439Z,73.30
2017-08-08T02:30:26.900Z,73.40
2017-08-08T02:32:54.371Z,73.40
2017-08-08T02:35:21.872Z,73.40
2017-08-08T02:37:49.351Z,73.50
2017-08-08T02:40:16.898Z,73.50
2017-08-08T02:42:44.399Z,73.70
2017-08-08T02:45:12.067Z,73.80
2017-08-08T02:47:39.587Z,74.00
2017-08-08T02:50:07.144Z,74.00
2017-08-08T02:52:34.612Z,73.60
2017-08-08T02:55:02.159Z,73.70
2017-08-08T02:57:29.759Z,73.70
2017-08-08T02:59:57.312Z,74.10
2017-08-08T03:02:24.771Z,74.40
2017-08-08T03:04:52.389Z,74.50
2017-08-08T03:07:19.884Z,74.90
2017-08-08T03:09:47.402Z,74.80
2017-08-08T03:12:15.691Z,75.00
2017-08-08T03:14:43.179Z,74.80
2017-08-08T03:17:10.630Z,74.70
2017-08-08T03:19:38.142Z,74.60
2017-08-08T03:22:05.662Z,74.70
2017-08-08T03:24:33.121Z,74.70
2017-08-08T03:27:00.775Z,75.00
2017-08-08T03:29:28.294Z,75.00
2017-08-08T03:31:55.950Z,75.20
2017-08-08T03:34:23.425Z,75.60
2017-08-08T03:36:50.962Z,75.60
2017-08-08T03:39:18.461Z,75.70
2017-08-08T03:41:47.041Z,75.70
2017-08-08T03:44:14.713Z,75.60
2017-08-08T03:46:42.819Z,75.00
2017-08-08T03:49:10.323Z,74.80
2017-08-08T03:51:38.616Z,74.20
2017-08-08T03:54:06.134Z,74.00
2017-08-08T03:56:34.807Z,74.10
2017-08-08T03:59:02.303Z,73.80
2017-08-08T04:01:30.360Z,74.00
2017-08-08T04:06:34.651Z,73.60
2017-08-08T04:09:03.317Z,73.80
2017-08-08T04:11:30.874Z,73.90
2017-08-08T04:13:58.503Z,73.80
2017-08-08T04:16:25.947Z,73.80
2017-08-08T04:18:54.282Z,74.20
2017-08-08T04:21:21.828Z,74.80
2017-08-08T04:23:49.938Z,73.90
2017-08-08T04:26:17.579Z,74.00
2017-08-08T04:28:45.100Z,74.20
2017-08-08T04:31:12.635Z,73.10
2017-08-08T04:33:40.835Z,73.40
2017-08-08T04:36:09.255Z,72.90
2017-08-08T04:38:36.707Z,73.00
2017-08-08T04:41:04.295Z,73.10
2017-08-08T04:43:31.936Z,73.10
2017-08-08T04:45:59.615Z,73.00
2017-08-08T04:48:27.192Z,72.80
2017-08-08T04:50:55.425Z,72.60
2017-08-08T04:53:22.924Z,72.70
2017-08-08T04:55:50.353Z,72.80
2017-08-08T04:58:17.863Z,72.30
2017-08-08T05:00:45.404Z,72.50
2017-08-08T05:03:12.851Z,72.20
2017-08-08T05:05:40.324Z,72.30
2017-08-08T05:08:07.888Z,72.00
2017-08-08T05:10:35.343Z,72.10
2017-08-08T05:13:02.911Z,71.90
2017-08-08T05:15:31.481Z,71.70
2017-08-08T05:17:59.803Z,71.60
2017-08-08T05:20:27.331Z,71.50
2017-08-08T05:22:54.854Z,71.60
2017-08-08T05:25:23.173Z,71.60
2017-08-08T05:27:50.718Z,71.60
2017-08-08T05:30:26.007Z,71.50
2017-08-08T05:32:56.181Z,71.50
2017-08-08T05:35:24.562Z,70.90
2017-08-08T05:37:57.829Z,70.90
2017-08-08T05:40:25.343Z,70.60
2017-08-08T05:42:52.918Z,71.00
2017-08-08T05:45:20.579Z,70.80
2017-08-08T05:47:53.045Z,70.70
2017-08-08T05:50:21.323Z,70.60
2017-08-08T05:52:51.318Z,70.40
2017-08-08T05:55:19.551Z,69.80
2017-08-08T05:57:48.467Z,69.10
2017-08-08T06:00:17.820Z,68.70
2017-08-08T06:02:45.463Z,68.30
2017-08-08T06:05:14.504Z,68.40
2017-08-08T06:07:43.094Z,68.70
2017-08-08T06:10:13.419Z,68.40
2017-08-08T06:12:41.044Z,68.40
2017-08-08T06:15:08.670Z,68.00
2017-08-08T06:17:39.104Z,67.80
2017-08-08T06:20:10.605Z,67.30
2017-08-08T06:22:38.199Z,66.50
2017-08-08T06:25:07.237Z,66.50
2017-08-08T06:27:34.763Z,66.00
2017-08-08T06:30:02.328Z,65.30
2017-08-08T06:32:30.631Z,65.40
2017-08-08T06:34:59.156Z,65.60
2017-08-08T06:37:27.856Z,65.10
2017-08-08T06:39:56.937Z,65.30
2017-08-08T06:42:25.184Z,64.60
2017-08-08T06:44:53.924Z,61.20
2017-08-08T06:47:22.222Z,61.80
2017-08-08T06:49:54.654Z,58.50
2017-08-08T06:52:28.741Z,56.00
2017-08-08T06:54:56.365Z,53.60
2017-08-08T06:59:59.328Z,51.30
2017-08-08T07:02:30.239Z,53.40
2017-08-08T07:05:00.549Z,53.40
2017-08-08T07:07:30.713Z,54.10
2017-08-08T07:09:58.243Z,54.40
2017-08-08T07:12:32.590Z,54.50
2017-08-08T07:15:00.877Z,55.10
2017-08-08T07:17:30.861Z,56.40
2017-08-08T07:19:59.592Z,56.40
2017-08-08T07:25:07.716Z,55.90
2017-08-08T07:27:36.023Z,55.90
2017-08-08T07:30:05.101Z,56.20
2017-08-08T07:32:32.650Z,55.80
2017-08-08T07:35:00.312Z,56.00
2017-08-08T07:37:27.925Z,56.20
2017-08-08T07:39:55.668Z,56.80
2017-08-08T07:42:23.287Z,57.50
2017-08-08T07:44:51.523Z,57.60
2017-08-08T07:47:19.992Z,57.70
2017-08-08T07:49:47.601Z,57.80
2017-08-08T07:52:15.136Z,57.80
2017-08-08T07:54:51.183Z,58.50
2017-08-08T07:57:19.400Z,58.30
2017-08-08T07:59:46.968Z,58.50
2017-08-08T08:02:20.234Z,58.70
2017-08-08T08:04:48.934Z,58.90
2017-08-08T08:07:31.827Z,59.50
2017-08-08T08:12:40.918Z,59.60
2017-08-08T08:15:15.014Z,59.50
2017-08-08T08:17:43.275Z,59.60
2017-08-08T08:20:17.918Z,59.10
2017-08-08T08:25:48.483Z,59.40
2017-08-08T08:28:26.626Z,60.30
2017-08-08T08:30:56.317Z,60.90
2017-08-08T08:33:25.173Z,61.00
2017-08-08T08:36:11.072Z,62.00
2017-08-08T08:41:16.003Z,61.90
2017-08-08T08:43:50.343Z,62.80
2017-08-08T08:49:33.902Z,61.80
2017-08-08T08:57:41.110Z,60.70
2017-08-08T09:08:30.008Z,59.90
2017-08-08T09:11:15.720Z,59.80
2017-08-08T09:19:20.165Z,59.60
2017-08-08T09:21:57.674Z,59.40
2017-08-08T09:27:07.309Z,59.90
2017-08-08T09:29:36.942Z,60.00
2017-08-08T09:34:58.097Z,60.30
2017-08-08T09:37:29.767Z,60.50
2017-08-08T09:40:01.437Z,60.00
2017-08-08T09:53:24.550Z,58.70
2017-08-08T09:55:52.142Z,57.90
2017-08-08T09:58:22.455Z,57.00
2017-08-08T10:01:10.400Z,56.60
2017-08-08T10:06:25.151Z,57.70
2017-08-08T10:11:33.921Z,55.10
2017-08-08T10:14:20.632Z,54.60
2017-08-08T10:16:52.712Z,55.30
2017-08-08T10:19:32.145Z,55.40
2017-08-08T10:22:13.736Z,54.50
2017-08-08T10:24:50.479Z,55.10
2017-08-08T10:27:24.519Z,55.20
2017-08-08T10:29:53.840Z,55.80
2017-08-08T10:35:06.120Z,55.20
2017-08-08T10:37:37.579Z,56.00
2017-08-08T10:40:06.565Z,56.20
2017-08-08T10:45:32.258Z,56.40
2017-08-08T10:48:04.415Z,58.10
2017-08-08T10:50:37.557Z,58.30
2017-08-08T10:53:05.691Z,58.60
2017-08-08T10:58:19.789Z,60.10
2017-08-08T11:00:59.238Z,60.60
2017-08-08T11:03:27.607Z,62.50
2017-08-08T11:06:07.858Z,62.50
2017-08-08T11:08:36.780Z,61.70
2017-08-08T11:11:05.293Z,63.60
2017-08-08T11:16:17.636Z,62.70
2017-08-08T11:21:25.539Z,63.30
2017-08-08T11:26:38.845Z,65.70
2017-08-08T11:29:13.264Z,68.80
2017-08-08T11:31:44.596Z,68.20
2017-08-08T11:34:17.459Z,69.60
2017-08-08T11:39:27.561Z,69.50
2017-08-08T11:42:00.701Z,69.30
2017-08-08T11:44:43.502Z,70.00
2017-08-08T11:47:17.866Z,70.80
2017-08-08T11:49:45.466Z,69.60
2017-08-08T11:52:14.241Z,70.30
2017-08-08T11:54:43.419Z,70.70
2017-08-08T11:57:12.443Z,70.50
2017-08-08T11:59:40.105Z,70.30
2017-08-08T12:02:09.509Z,71.20
2017-08-08T12:04:37.080Z,70.40
2017-08-08T12:07:07.560Z,71.10
2017-08-08T12:09:36.246Z,71.00
2017-08-08T12:12:06.970Z,72.00
2017-08-08T12:14:35.404Z,72.70
2017-08-08T12:17:09.786Z,72.10
2017-08-08T12:19:44.979Z,71.50
2017-08-08T12:24:52.658Z,71.50
2017-08-08T12:27:22.101Z,70.50
2017-08-08T12:32:46.675Z,69.10
2017-08-08T12:35:23.204Z,68.80
2017-08-08T12:40:42.651Z,70.80
2017-08-08T12:49:27.065Z,70.40
2017-08-08T12:52:04.827Z,71.30
2017-08-08T13:00:46.493Z,72.50
2017-08-08T13:06:29.831Z,74.40
2017-08-08T13:14:26.446Z,76.30
2017-08-08T13:22:23.088Z,79.10
2017-08-08T13:25:01.367Z,78.30
2017-08-08T13:27:32.757Z,77.80
2017-08-08T13:30:19.821Z,78.10
2017-08-08T13:38:25.464Z,79.30
2017-08-08T13:40:55.740Z,78.70
2017-08-08T13:43:54.565Z,78.60
2017-08-08T13:46:35.714Z,79.30
2017-08-08T13:51:51.629Z,78.30
2017-08-08T13:54:24.822Z,78.00
2017-08-08T13:56:52.792Z,78.30
2017-08-08T13:59:25.976Z,77.80
2017-08-08T14:04:50.872Z,77.50
2017-08-08T14:07:20.849Z,78.50
2017-08-08T14:12:44.787Z,78.30
2017-08-08T14:15:16.343Z,80.80
2017-08-08T14:21:03.976Z,81.20
2017-08-08T14:26:24.365Z,84.30
2017-08-08T14:28:53.136Z,84.80
2017-08-08T14:31:24.328Z,84.80
2017-08-08T14:33:52.137Z,84.30
2017-08-08T14:39:08.534Z,84.30
2017-08-08T14:51:02.282Z,79.80
2017-08-08T14:53:49.016Z,81.30
2017-08-08T15:20:25.589Z,78.20
2017-08-08T15:23:18.383Z,76.80
2017-08-08T15:28:48.881Z,75.90
2017-08-08T15:31:31.213Z,75.40
2017-08-08T15:34:19.838Z,75.50
2017-08-08T15:37:20.195Z,74.20
2017-08-08T15:48:47.191Z,72.70
2017-08-08T15:51:41.433Z,73.00
2017-08-08T15:54:12.770Z,72.60
2017-08-08T15:56:51.763Z,71.50
2017-08-08T15:59:24.773Z,71.20
2017-08-08T16:02:06.260Z,72.20
2017-08-08T16:04:44.219Z,70.70
2017-08-08T16:07:34.514Z,70.70
2017-08-08T16:10:05.655Z,70.60
2017-08-08T16:12:44.598Z,70.00
2017-08-08T16:15:18.008Z,70.10
2017-08-08T16:17:48.520Z,70.10
2017-08-08T16:20:20.752Z,70.50
2017-08-08T16:22:53.205Z,70.20
2017-08-08T16:25:22.422Z,71.20
2017-08-08T16:27:58.000Z,70.20
2017-08-08T16:30:34.121Z,69.80
2017-08-08T16:33:04.742Z,69.60
2017-08-08T16:35:52.995Z,70.10
2017-08-08T16:38:27.006Z,69.30
2017-08-08T16:41:03.890Z,70.10
2017-08-08T16:43:34.629Z,70.70
2017-08-08T16:46:02.337Z,70.60
2017-08-08T16:48:31.063Z,71.10
2017-08-08T16:50:58.996Z,71.20
2017-08-08T16:53:27.630Z,71.10
2017-08-08T16:55:56.465Z,71.60
2017-08-08T16:58:25.063Z,71.10
2017-08-08T17:00:53.001Z,71.70
2017-08-08T17:03:23.572Z,72.10
2017-08-08T17:05:51.662Z,65.60
2017-08-08T17:08:20.025Z,68.80
2017-08-08T17:13:33.507Z,72.10
2017-08-08T17:16:19.088Z,74.40
2017-08-08T17:18:59.210Z,76.90
2017-08-08T17:21:28.729Z,78.30
2017-08-08T17:23:57.193Z,80.70
2017-08-08T17:26:27.758Z,80.70
2017-08-08T17:54:24.706Z,84.00
2017-08-08T17:59:52.368Z,84.40
2017-08-08T18:02:22.240Z,84.00
2017-08-08T18:05:03.723Z,83.70
2017-08-08T18:07:33.023Z,84.20
2017-08-08T18:10:02.505Z,83.80
2017-08-08T18:12:45.420Z,84.60
2017-08-08T18:15:13.028Z,84.40
2017-08-08T18:17:42.485Z,85.30
2017-08-08T18:20:17.563Z,84.40
2017-08-08T18:22:53.926Z,84.70
2017-08-08T18:27:57.642Z,84.30
2017-08-08T18:30:27.211Z,84.80
2017-08-08T18:32:55.000Z,84.40
2017-08-08T18:35:24.901Z,84.70
2017-08-08T18:37:56.590Z,83.60
2017-08-08T18:40:26.758Z,83.50
2017-08-08T18:42:57.403Z,82.90
2017-08-08T18:51:10.718Z,80.60
2017-08-08T18:53:39.544Z,80.60
2017-08-08T18:56:36.542Z,80.50
2017-08-08T18:59:25.400Z,81.80
2017-08-08T19:02:10.574Z,81.80
2017-08-08T19:04:46.254Z,81.80
2017-08-08T19:07:28.438Z,79.50
2017-08-08T19:12:37.807Z,78.70
2017-08-08T19:15:11.740Z,79.50
2017-08-08T19:17:41.420Z,79.30
2017-08-08T19:20:10.006Z,79.50
2017-08-08T19:22:41.435Z,79.50
2017-08-08T19:25:10.236Z,78.90
2017-08-08T19:27:39.858Z,78.90
2017-08-08T19:30:09.406Z,78.80
2017-08-08T19:33:05.468Z,78.10
2017-08-08T19:35:40.649Z,78.20
2017-08-08T19:38:27.433Z,78.20
2017-08-08T19:40:57.486Z,78.20
2017-08-08T19:43:30.266Z,78.00
2017-08-08T19:49:01.989Z,78.00
2017-08-08T19:54:27.027Z,77.60
2017-08-08T19:57:00.839Z,77.50
2017-08-08T20:02:02.802Z,77.80
2017-08-08T20:04:32.543Z,78.40
2017-08-08T20:07:00.820Z,78.40
2017-08-08T20:09:28.536Z,77.70
2017-08-08T20:12:07.428Z,78.30
2017-08-08T20:14:56.371Z,78.30
2017-08-08T20:17:40.968Z,78.20
2017-08-08T20:20:09.306Z,78.50
2017-08-08T20:25:31.853Z,78.30
2017-08-08T20:28:00.031Z,78.20
2017-08-08T20:30:31.790Z,78.50
2017-08-08T20:33:01.652Z,79.20
2017-08-08T20:35:29.234Z,78.60
2017-08-08T20:37:57.759Z,78.70
2017-08-08T20:40:26.199Z,79.10
2017-08-08T20:43:00.816Z,79.30
2017-08-08T20:45:30.650Z,79.50
2017-08-08T20:48:02.461Z,79.80
2017-08-08T20:50:31.133Z,79.80
2017-08-08T20:52:59.348Z,79.70
2017-08-08T20:55:27.869Z,80.20
2017-08-08T20:57:55.880Z,80.30
2017-08-08T21:00:26.780Z,80.40
2017-08-08T21:02:55.291Z,80.90
2017-08-08T21:05:22.884Z,81.50
2017-08-08T21:07:53.368Z,81.50
2017-08-08T21:10:23.006Z,81.20
2017-08-08T21:12:50.926Z,81.40
2017-08-08T21:15:18.609Z,81.40
2017-08-08T21:17:51.024Z,81.60
2017-08-08T21:20:19.292Z,81.90
2017-08-08T21:22:49.574Z,81.20
2017-08-08T21:25:20.428Z,81.20
2017-08-08T21:27:48.033Z,81.50
2017-08-08T21:30:15.727Z,81.20
2017-08-08T21:32:43.409Z,81.20
2017-08-08T21:35:11.950Z,80.90
2017-08-08T21:37:40.525Z,81.10
2017-08-08T21:40:09.707Z,81.00
2017-08-08T21:42:37.949Z,81.00
2017-08-08T21:50:19.061Z,81.40
2017-08-08T21:52:47.892Z,81.40
2017-08-08T21:55:16.072Z,81.60
2017-08-08T21:57:44.475Z,81.40
2017-08-08T22:00:20.789Z,81.30
2017-08-08T22:02:49.460Z,81.70
2017-08-08T22:05:17.018Z,81.90
2017-08-08T22:07:44.566Z,81.40
2017-08-08T22:10:12.067Z,81.40
2017-08-08T22:12:39.698Z,81.30
2017-08-08T22:15:08.839Z,81.30
2017-08-08T22:17:38.052Z,81.30
2017-08-08T22:20:10.082Z,81.40
2017-08-08T22:22:37.557Z,81.40
2017-08-08T22:25:08.070Z,82.40
2017-08-08T22:27:38.430Z,81.80
2017-08-08T22:30:08.229Z,81.80
2017-08-08T22:32:36.710Z,82.60
2017-08-08T22:35:08.773Z,81.10
2017-08-08T22:37:36.283Z,81.40
2017-08-08T22:40:04.991Z,80.70
2017-08-08T22:42:32.441Z,80.90
2017-08-08T22:44:59.933Z,80.60
2017-08-08T22:47:28.158Z,80.70
2017-08-08T22:49:55.819Z,80.60
2017-08-08T22:52:23.368Z,80.60
2017-08-08T22:54:50.940Z,80.70
2017-08-08T22:57:18.491Z,79.90
2017-08-08T22:59:46.830Z,80.20
2017-08-08T23:02:14.545Z,80.20
2017-08-08T23:04:42.673Z,80.20
2017-08-08T23:07:10.483Z,79.50
2017-08-08T23:09:37.947Z,79.50
2017-08-08T23:12:06.433Z,79.80
2017-08-08T23:14:33.929Z,79.40
2017-08-08T23:17:01.657Z,79.60
2017-08-08T23:19:30.385Z,79.30
2017-08-08T23:21:59.964Z,79.10
2017-08-08T23:24:27.452Z,79.10
2017-08-08T23:27:02.783Z,78.90
2017-08-08T23:29:31.283Z,78.90
2017-08-08T23:31:58.864Z,78.80
2017-08-08T23:34:26.339Z,78.80
2017-08-08T23:36:54.581Z,78.80
2017-08-08T23:39:22.077Z,79.00
2017-08-08T23:41:50.203Z,79.00
2017-08-08T23:44:17.701Z,78.80
2017-08-08T23:46:45.161Z,79.10
2017-08-08T23:49:12.739Z,78.90
2017-08-08T23:51:40.601Z,79.00
2017-08-08T23:54:08.182Z,79.20
2017-08-08T23:56:36.660Z,79.20
2017-08-08T23:59:04.192Z,79.10
